Portada
METAR-TAF:

METAR-TAF

Aeroports :

Bradford, Pennsilvània, Estats Units d'Amèrica

latitud: 41-47-55N, longitud: 078-38-09W, altitud: 653 m

Observació

L'informe es va fer fa 35 minuts, a les 06:53 UTC
Vent calma
Temperatura -12°C
Humitat 85%
Pressió 1027 hPa
Visibilitat: 16.1 km
Cel clar

METAR: KBFD 220653Z AUTO 00000KT 10SM CLR M12/M14 A3033 RMK AO2 SLP307 I1001 T11171139

Hora: 02:28 (07:28 UTC)

Pronòstic

L'informe es va fer fa 1 hora i 59 minuts, a les 05:29 UTC
Pronòstic vàlid del 22 a les 06 UTC al 23 a les 06 UTC
Vent 4 kt del Oest
Visibilitat: 10 km
Cel clar
A partir de les 22 a les 1400 UTC
Vent 6 kt del Sud/Sud-Oest
Visibilitat: 10 km
Núvols disperses a una alçada de 25000 ft

TAF: KBFD 220529Z 2206/2306 28004KT P6SM SKC FM221400 20006KT P6SM SCT250

Observacions i pronòstics meteorològics de més de 4000 aeroports (METAR i TAF).

Les estacions disponibles són els punts grocs i vermells al mapa.

Posi el ratolí al punt desitjat per veure el nom de l'estació.

Feu clic per veure les observacions i els pronòstics meteorològics.

Per canviar el mapa: feu clic els botons verds amb una creu de color negre per apropar; al botó verd amb un guió per allunyar la imatge; o en les fletxes verdes per a mapes adjacents.


METAR-TAF: